aviador You're here:

EBFN Decoded Metar

KOKSIJDE in BELGIUM
Report Time2018-01-17 00:55:00
UTC Time2018-01-17 01:20:22
Flight Rules vfr VFR
Wind280° at 22 kt
W.Decomp.*RWY 29: 21.7 kt HW 3.8 kt LCW
W.Rank280° ranks 15
Current wind is above 280° avg. (10.7)
Visibility9999 m
Phenomena:N/A
Clouds:Broken 031 Hf
Broken 160 Hf
Expected CloudBase > 2,400 ft AGL from Temp-Dew spread
Ceiling3,100 ft
Temp05°C (ISA -10)
Dew Point-1°C (66% RH)
AAT-5.0°C
QNH0995 hPa
Density Alt-476 ft
Elevation30 ft
Report Wrong Elevation
Raw Report
METAR EBFN 170055Z AUTO 28022KT 9999 BKN031/// BKN160/// 05/M01 Q0995
BLU=

Extra information for EBFN:More info

Metar Taf Metar & Taf Last 4 Metars F.Rules Stats Wind Profile Meteogram Temp Stats Airport Information Weather charts Add Link Nearby VenuesMetar ALERT Operation Metar Decoded Social comments